メインページ
METAR-TAF:

METAR-TAF

空港 :

ロングイェールビーン, ノルウェー

緯度: 78-15N, 経度: 015-28E, 海抜: 2m

現時点の気象観測

当レポートは46分前の18:50(UTC)に作成
南/南西の風 22kt、最大33ktの突風を伴う
気温 3°C
湿度 65%
気圧 1035 hPa
視程10km以上
高度5000ftの千切れ雲あり
弱いにわか雪, 雨

METAR: ENSB 251850Z 20022G33KT 9999 -SHSNRA BKN050 03/M03 Q1035 RMK WIND 1400FT 20034KT

時間: 20:36 (19:36 UTC)

予報

予報は25日の 18時(UTC)から 26日の 18時(UTC)まで有効
南西の風 20kt、最大30ktの突風を伴う
視程10km以上
高度1500ftの雲はほとんどない
高度4000ftの千切れ雲あり
25日の 18時(UTC)から 26日の 18時(UTC)まで一時的に
南西の風 30kt、最大40ktの突風を伴う
視程: 4000m
高度1200ftの
小雪, 雨
25日の 18時(UTC)から 26日の 18時(UTC)まで一時的に
の風 8kt、最大18ktの突風を伴う

TAF: ENSB 2518/2618 22020G30KT 9999 FEW015 BKN040 TEMPO 2518/2618 22030G40KT 4000 -SNRA VV012 TEMPO 2518/2618 19008G18KT

4,000以上の空港の気象観測と天気予報(METAR報とTAF報)

利用可能な観測所は地図上に黄色い丸と赤い丸で示す。

丸の上にカーソルを重ねると観測所名を参照できる。

次にクリックすると気象観測と天気予報を参照できる。

マップの切り替え:黒色「×」印の緑ボタンをクリックして拡大、「-」印の緑ボタンをクリックして縮小、緑色の三角印をクリックして隣りの地図に切り替え


METAR-TAF: